Flight Track Log - Related Links

Times and Time Zones

All times are in EDT time to prevent confusion due to time zone crossing. See the JZA8489 flight status page for this flight to view local times or setup timezone preferences in your user account.

Time Position Orientation Groundspeed Altitude Reporting Facility
EDT Latitude Longitude Course Direction KTS MPH feet Rate Location/Type
Tue 07:23:26 PM 50.4000 -104.6667 301° West 20 23 1,900  Level Winnipeg Center
Tue 07:24:26 PM 50.4000 -104.6667 301° West 10 12 2,000 500 Climbing Winnipeg Center
Tue 07:25:26 PM 50.4167 -104.7000 308° West 130 150 2,900 1,100 Climbing Winnipeg Center
Tue 07:26:26 PM 50.4500 -104.7333 328° Northwest 140 161 4,200 1,350 Climbing Winnipeg Center
Tue 07:27:26 PM 50.4833 -104.7833 316° Northwest 130 150 5,600 1,450 Climbing Winnipeg Center
Tue 07:28:26 PM 50.5000 -104.8167 308° West 120 138 7,100 1,350 Climbing Winnipeg Center
Tue 07:29:00 PM 50.6753 -104.9093 298° West  Level FlightAware Approximate
Tue 07:29:26 PM 50.5167 -104.8667 298° West 120 138 8,300  Level Winnipeg Center
Tue 07:30:00 PM 50.7093 -104.9907 301° West  Level FlightAware Approximate
Tue 07:30:26 PM 50.5167 -104.9333 270° West 130 150 9,400  Level Winnipeg Center
Tue 07:31:26 PM 50.5500 -104.9833 316° Northwest 130 150 10,800 1,200 Climbing Winnipeg Center
Tue 07:32:26 PM 50.5667 -105.0167 308° West 130 150 11,800 1,200 Climbing Winnipeg Center
Tue 07:33:26 PM 50.5833 -105.0667 298° West 140 161 13,200 1,250 Climbing Winnipeg Center
Tue 07:34:26 PM 50.6167 -105.1333 308° West 140 161 14,300 1,050 Climbing Winnipeg Center
Tue 07:35:26 PM 50.6167 -105.1833 270° West 150 173 15,300 900 Climbing Winnipeg Center
Tue 07:36:26 PM 50.6500 -105.2333 316° Northwest 160 184 16,100 900 Climbing Winnipeg Center
Tue 07:37:26 PM 50.6833 -105.3000 308° West 170 196 17,100 900 Climbing Winnipeg Center
Tue 07:38:26 PM 50.7000 -105.3833 288° West 180 207 17,900 750 Climbing Winnipeg Center
Tue 07:39:26 PM 50.7167 -105.4333 298° West 170 196 18,600 750 Climbing Winnipeg Center
Tue 07:40:26 PM 50.7500 -105.5167 302° West 180 207 19,400 800 Climbing Winnipeg Center
Tue 07:41:26 PM 50.7833 -105.5833 308° West 170 196 20,200 650 Climbing Winnipeg Center
Tue 07:42:26 PM 50.8000 -105.6333 298° West 180 207 20,700 590 Climbing Winnipeg Center
Tue 07:43:28 PM 50.8167 -105.6833 298° West 180 207 21,400 639 Climbing Edmonton Center
Tue 07:44:28 PM 50.8333 -105.7333 298° West 180 207 22,000 300 Climbing Edmonton Center
Tue 07:45:28 PM 50.8667 -105.8167 302° West 180 207 22,000  Level Edmonton Center
Tue 07:46:28 PM 50.9000 -105.9000 302° West 200 230 22,000  Level Edmonton Center
Tue 07:47:28 PM 50.9333 -105.9833 302° West 220 253 22,000  Level Edmonton Center
Tue 07:48:28 PM 50.9667 -106.0667 302° West 220 253 22,000  Level Edmonton Center
Tue 07:49:28 PM 50.9833 -106.1500 288° West 220 253 22,000  Level Edmonton Center
Tue 07:50:28 PM 51.0167 -106.2500 298° West 220 253 22,000  Level Edmonton Center
Tue 07:51:28 PM 51.0500 -106.3333 302° West 220 253 22,000  Level Edmonton Center
Tue 07:52:28 PM 51.0833 -106.4167 303° West 220 253 22,000  Level Edmonton Center
Tue 07:53:28 PM 51.1167 -106.5000 303° West 230 265 22,000  Level Edmonton Center
Tue 07:54:28 PM 51.1333 -106.6000 285° West 230 265 22,000  Level Edmonton Center
Tue 07:55:28 PM 51.1667 -106.6833 303° West 220 253 22,000  Level Edmonton Center
Tue 07:56:28 PM 51.2000 -106.7667 303° West 220 253 22,000  Level Edmonton Center
Tue 07:57:28 PM 51.2333 -106.8500 303° West 220 253 22,000  Level Edmonton Center
Tue 07:58:28 PM 51.2667 -106.9333 303° West 220 253 22,000  Level Edmonton Center
Tue 07:59:28 PM 51.3000 -107.0500 295° West 220 253 22,000  Level Edmonton Center
Tue 08:00:28 PM 51.3167 -107.1167 292° West 220 253 22,000  Level Edmonton Center
Tue 08:01:28 PM 51.3500 -107.2000 303° West 220 253 22,000  Level Edmonton Center
Tue 08:02:28 PM 51.3833 -107.2833 303° West 220 253 22,000  Level Edmonton Center
Tue 08:03:28 PM 51.4167 -107.3667 303° West 220 253 22,000  Level Edmonton Center
Tue 08:04:28 PM 51.4500 -107.4500 303° West 220 253 22,000  Level Edmonton Center
Tue 08:05:28 PM 51.4833 -107.5333 303° West 220 253 22,000  Level Edmonton Center
Tue 08:06:28 PM 51.5000 -107.6167 288° West 220 253 22,000  Level Edmonton Center
Tue 08:07:28 PM 51.5167 -107.7333 283° West 220 253 22,000  Level Edmonton Center
Tue 08:08:28 PM 51.5500 -107.7833 317° Northwest 220 253 22,000  Level Edmonton Center
Tue 08:09:28 PM 51.5833 -107.9000 295° West 220 253 22,000  Level Edmonton Center
Tue 08:10:28 PM 51.6167 -107.9833 303° West 220 253 22,000  Level Edmonton Center
Tue 08:11:28 PM 51.6500 -108.0667 303° West 220 253 22,000  Level Edmonton Center
Tue 08:12:28 PM 51.6833 -108.1500 303° West 220 253 22,000  Level Edmonton Center
Tue 08:13:28 PM 51.7000 -108.2333 288° West 220 253 22,000  Level Edmonton Center
Tue 08:14:28 PM 51.7333 -108.3167 303° West 220 253 22,000  Level Edmonton Center
Tue 08:15:28 PM 51.7667 -108.4000 303° West 220 253 22,000  Level Edmonton Center
Tue 08:16:28 PM 51.7833 -108.5167 283° West 210 242 22,000  Level Edmonton Center
Tue 08:17:28 PM 51.8167 -108.6000 303° West 220 253 22,000  Level Edmonton Center
Tue 08:18:28 PM 51.8500 -108.6833 303° West 220 253 22,000  Level Edmonton Center
Tue 08:19:28 PM 51.8833 -108.7667 303° West 220 253 22,000  Level Edmonton Center
Tue 08:20:28 PM 51.9167 -108.8500 303° West 210 242 22,000  Level Edmonton Center
Tue 08:21:28 PM 51.9333 -108.9333 288° West 210 242 22,000  Level Edmonton Center
Tue 08:22:28 PM 51.9500 -109.0167 288° West 220 253 22,000  Level Edmonton Center
Tue 08:23:28 PM 51.9833 -109.1000 303° West 220 253 22,000  Level Edmonton Center
Tue 08:24:28 PM 52.0167 -109.2000 298° West 220 253 22,000  Level Edmonton Center
Tue 08:25:28 PM 52.0500 -109.2833 303° West 220 253 22,000  Level Edmonton Center
Tue 08:26:28 PM 52.0833 -109.3833 299° West 220 253 22,000  Level Edmonton Center
Tue 08:27:28 PM 52.1000 -109.4833 285° West 220 253 22,000  Level Edmonton Center
Tue 08:28:28 PM 52.1167 -109.5667 288° West 220 253 22,000  Level Edmonton Center
Tue 08:29:28 PM 52.1500 -109.6500 303° West 220 253 22,000  Level Edmonton Center
Tue 08:30:28 PM 52.1833 -109.7333 303° West 220 253 22,000  Level Edmonton Center
Tue 08:31:28 PM 52.2167 -109.8167 303° West 260 299 22,000  Level Edmonton Center
Tue 08:32:28 PM 52.2500 -109.9000 303° West 220 253 22,000  Level Edmonton Center
Tue 08:33:28 PM 52.2667 -110.0000 285° West 220 253 22,000  Level Edmonton Center
Tue 08:34:28 PM 52.3000 -110.1000 299° West 220 253 22,000  Level Edmonton Center
Tue 08:35:28 PM 52.3167 -110.1833 288° West 220 253 22,000  Level Edmonton Center
Tue 08:36:28 PM 52.3500 -110.2833 299° West 220 253 22,000  Level Edmonton Center
Tue 08:37:28 PM 52.3833 -110.3667 303° West 210 242 22,000  Level Edmonton Center
Tue 08:38:28 PM 52.4000 -110.4500 288° West 220 253 22,000  Level Edmonton Center
Tue 08:39:28 PM 52.4333 -110.5333 303° West 220 253 22,000  Level Edmonton Center
Tue 08:40:26 PM 52.4667 -110.6500 295° West 220 253 22,000  Level Winnipeg Center
Tue 08:40:28 PM 52.4667 -110.6500 295° West 210 242 22,000  Level Edmonton Center
Tue 08:41:26 PM 52.5000 -110.7833 292° West 220 253 22,000  Level Winnipeg Center
Tue 08:42:26 PM 52.5333 -110.8333 318° Northwest 220 253 22,000  Level Winnipeg Center
Tue 08:43:28 PM 52.5500 -110.9167 288° West 220 253 22,000  Level Edmonton Center
Tue 08:44:28 PM 52.5667 -111.0000 288° West 210 242 22,000  Level Edmonton Center
Tue 08:45:28 PM 52.6000 -111.0833 303° West 220 253 22,000  Level Edmonton Center
Tue 08:46:28 PM 52.6167 -111.1833 285° West 220 253 22,000  Level Edmonton Center
Tue 08:47:28 PM 52.6500 -111.2667 303° West 210 242 22,000  Level Edmonton Center
Tue 08:48:28 PM 52.6833 -111.3500 303° West 210 242 22,000  Level Edmonton Center
Tue 08:49:28 PM 52.6833 -111.4333 270° West 210 242 22,000  Level Edmonton Center
Tue 08:50:28 PM 52.7167 -111.5333 299° West 210 242 22,000  Level Edmonton Center
Tue 08:51:28 PM 52.7500 -111.6167 303° West 210 242 22,000  Level Edmonton Center
Tue 08:52:28 PM 52.7833 -111.7000 304° West 210 242 22,000  Level Edmonton Center
Tue 08:53:28 PM 52.8000 -111.8000 285° West 210 242 22,000 -350 Level Edmonton Center
Tue 08:54:28 PM 52.8167 -111.8833 288° West 210 242 21,300 -850 Descending Edmonton Center
Tue 08:55:28 PM 52.8500 -111.9667 304° West 230 265 20,300 -1,050 Descending Edmonton Center
Tue 08:56:28 PM 52.8833 -112.0833 295° West 240 276 19,200 -1,100 Descending Edmonton Center
Tue 08:57:28 PM 52.9167 -112.1833 299° West 240 276 18,100 -1,050 Descending Edmonton Center
Tue 08:58:28 PM 52.9500 -112.3000 295° West 250 288 17,100 -1,100 Descending Edmonton Center
Tue 08:59:28 PM 52.9667 -112.3833 288° West 250 288 15,900 -1,150 Descending Edmonton Center
Tue 09:00:28 PM 53.0000 -112.5000 295° West 250 288 14,800 -1,100 Descending Edmonton Center
Tue 09:01:28 PM 53.0167 -112.6167 283° West 240 276 13,700 -1,050 Descending Edmonton Center
Tue 09:02:28 PM 53.0167 -112.7000 270° West 240 276 12,700 -1,100 Descending Edmonton Center
Tue 09:03:28 PM 53.0500 -112.8167 295° West 250 288 11,500 -1,150 Descending Edmonton Center
Tue 09:04:28 PM 53.0500 -112.9333 270° West 230 265 10,400 -1,000 Descending Edmonton Center
Tue 09:05:28 PM 53.0667 -113.0333 286° West 220 253 9,500 -950 Descending Edmonton Center
Tue 09:06:28 PM 53.0667 -113.1333 270° West 230 265 8,500 -950 Descending Edmonton Center
Tue 09:07:28 PM 53.0833 -113.2500 283° West 220 253 7,600 -900 Descending Edmonton Center
Tue 09:08:28 PM 53.1167 -113.3500 299° West 220 253 6,700 -1,050 Descending Edmonton Center
Tue 09:09:28 PM 53.1333 -113.4167 293° West 200 230 5,500 -1,050 Descending Edmonton Center
Tue 09:10:28 PM 53.1833 -113.4500 338° Northwest 180 207 4,600 -900 Descending Edmonton Center
Tue 09:11:28 PM 53.2167 -113.5167 310° West 140 161 3,700 -900 Descending Edmonton Center

Login

Don't have an account? Register now (free) for customized features, flight alerts, and more!